createdAt,value
2022-10-14T00:01:25.079Z,100311.38
2022-10-14T00:03:53.207Z,100306.19
2022-10-14T00:06:23.558Z,100319.09
2022-10-14T00:08:51.934Z,100312.88
2022-10-14T00:11:21.356Z,100314.72
2022-10-14T00:13:49.363Z,100309.56
2022-10-14T00:16:18.277Z,100301.47
2022-10-14T00:18:46.259Z,100304.97
2022-10-14T00:21:14.274Z,100298.75
2022-10-14T00:23:43.790Z,100297.94
2022-10-14T00:26:16.684Z,100299.59
2022-10-14T00:28:44.693Z,100291.69
2022-10-14T00:31:12.760Z,100297.09
2022-10-14T00:33:40.732Z,100291.09
2022-10-14T00:36:09.561Z,100290.25
2022-10-14T00:38:37.554Z,100286.72
2022-10-14T00:41:07.164Z,100285.09
2022-10-14T00:43:53.797Z,100287.78
2022-10-14T00:46:22.003Z,100278.84
2022-10-14T00:48:49.974Z,100282.59
2022-10-14T00:51:17.899Z,100275.53
2022-10-14T00:53:45.816Z,100270.16
2022-10-14T00:56:15.967Z,100279.06
2022-10-14T00:58:43.989Z,100267.66
2022-10-14T01:01:11.978Z,100274.09
2022-10-14T01:03:41.187Z,100268.91
2022-10-14T01:06:14.810Z,100262.69
2022-10-14T01:08:46.732Z,100263.13
2022-10-14T01:11:18.208Z,100261.25
2022-10-14T01:13:49.113Z,100256.91
2022-10-14T01:16:19.798Z,100255.25
2022-10-14T01:19:01.902Z,100256.28
2022-10-14T01:21:30.713Z,100251.97
2022-10-14T01:24:34.065Z,100242.78
2022-10-14T01:27:37.596Z,100240.09
2022-10-14T01:30:18.459Z,100241.16
2022-10-14T01:32:56.622Z,100234.06
2022-10-14T01:35:28.002Z,100249.47
2022-10-14T01:37:57.813Z,100239.47
2022-10-14T01:40:31.570Z,100239.47
2022-10-14T01:43:00.147Z,100240.31
2022-10-14T01:45:29.466Z,100237.84
2022-10-14T01:47:57.412Z,100232.44
2022-10-14T01:50:25.736Z,100237.00
2022-10-14T01:52:56.027Z,100226.41
2022-10-14T01:55:26.367Z,100239.91
2022-10-14T01:57:55.160Z,100246.16
2022-10-14T02:00:23.076Z,100232.88
2022-10-14T02:02:52.511Z,100232.03
2022-10-14T02:05:23.527Z,100228.75
2022-10-14T02:07:52.952Z,100226.25
2022-10-14T02:10:27.553Z,100229.78
2022-10-14T02:12:57.980Z,100220.22
2022-10-14T02:15:30.192Z,100224.00
2022-10-14T02:18:04.585Z,100229.41
2022-10-14T02:20:33.796Z,100235.00
2022-10-14T02:23:03.268Z,100232.28
2022-10-14T02:25:32.782Z,100231.28
2022-10-14T02:28:00.759Z,100225.06
2022-10-14T02:30:28.966Z,100227.75
2022-10-14T02:32:57.243Z,100215.91
2022-10-14T02:35:26.591Z,100221.28
2022-10-14T02:37:54.522Z,100219.66
2022-10-14T02:40:28.268Z,100231.03
2022-10-14T02:42:56.207Z,100222.94
2022-10-14T02:45:26.033Z,100224.81
2022-10-14T02:47:53.999Z,100214.84
2022-10-14T02:50:22.046Z,100232.09
2022-10-14T02:52:51.457Z,100223.19
2022-10-14T02:55:19.446Z,100232.09
2022-10-14T02:57:47.375Z,100236.66
2022-10-14T03:00:16.121Z,100230.44
2022-10-14T03:02:44.086Z,100225.06
2022-10-14T03:05:12.144Z,100235.00
2022-10-14T03:07:40.076Z,100234.19
2022-10-14T03:10:10.162Z,100234.41
2022-10-14T03:12:38.056Z,100226.53
2022-10-14T03:15:07.263Z,100228.59
2022-10-14T03:17:35.212Z,100231.31
2022-10-14T03:20:03.335Z,100237.75
2022-10-14T03:22:31.229Z,100229.66
2022-10-14T03:24:59.097Z,100228.59
2022-10-14T03:27:28.578Z,100218.25
2022-10-14T03:29:56.486Z,100222.81
2022-10-14T03:32:24.776Z,100221.78
2022-10-14T03:34:52.794Z,100220.13
2022-10-14T03:37:20.745Z,100219.88
2022-10-14T03:39:48.697Z,100220.94
2022-10-14T03:42:16.601Z,100219.88
2022-10-14T03:44:46.465Z,100208.28
2022-10-14T03:47:14.433Z,100204.75
2022-10-14T03:49:42.345Z,100206.38
2022-10-14T03:52:10.319Z,100203.69
2022-10-14T03:54:38.513Z,100206.38
2022-10-14T03:57:06.433Z,100215.56
2022-10-14T03:59:34.399Z,100210.16
2022-10-14T04:02:03.759Z,100204.75
2022-10-14T04:04:31.758Z,100209.34
2022-10-14T04:06:59.827Z,100203.09
2022-10-14T04:09:29.262Z,100210.56
2022-10-14T04:11:58.171Z,100211.38
2022-10-14T04:14:26.590Z,100213.25
2022-10-14T04:16:54.496Z,100210.56
2022-10-14T04:19:23.976Z,100215.97
2022-10-14T04:21:51.981Z,100209.94
2022-10-14T04:24:19.942Z,100206.44
2022-10-14T04:26:47.851Z,100211.00
2022-10-14T04:29:15.850Z,100195.84
2022-10-14T04:31:44.067Z,100203.34
2022-10-14T04:34:12.639Z,100207.69
2022-10-14T04:36:42.034Z,100203.09
2022-10-14T04:39:10.991Z,100210.38
2022-10-14T04:41:39.008Z,100207.69
2022-10-14T04:44:07.200Z,100207.69
2022-10-14T04:46:35.228Z,100208.75
2022-10-14T04:49:03.141Z,100200.66
2022-10-14T04:51:31.156Z,100206.03
2022-10-14T04:54:00.563Z,100201.69
2022-10-14T04:56:28.809Z,100197.09
2022-10-14T04:58:56.708Z,100205.19
2022-10-14T05:01:24.704Z,100197.94
2022-10-14T05:03:52.650Z,100202.50
2022-10-14T05:06:20.619Z,100198.16
2022-10-14T05:08:48.536Z,100198.97
2022-10-14T05:11:17.935Z,100206.25
2022-10-14T05:13:45.808Z,100200.03
2022-10-14T05:16:14.005Z,100202.72
2022-10-14T05:18:41.916Z,100202.72
2022-10-14T05:21:09.896Z,100203.75
2022-10-14T05:23:38.005Z,100203.75
2022-10-14T05:26:06.275Z,100201.06
2022-10-14T05:28:35.675Z,100202.13
2022-10-14T05:31:03.681Z,100203.75
2022-10-14T05:33:32.165Z,100211.84
2022-10-14T05:36:00.198Z,100201.06
2022-10-14T05:38:28.270Z,100206.47
2022-10-14T05:40:56.400Z,100201.06
2022-10-14T05:43:30.923Z,100209.78
2022-10-14T05:46:01.620Z,100196.28
2022-10-14T05:48:29.649Z,100204.38
2022-10-14T05:51:01.467Z,100205.44
2022-10-14T05:53:29.531Z,100199.78
2022-10-14T05:56:02.887Z,100203.34
2022-10-14T05:58:30.796Z,100200.66
2022-10-14T06:01:02.223Z,100203.34
2022-10-14T06:03:30.490Z,100210.19
2022-10-14T06:05:58.949Z,100217.22
2022-10-14T06:08:27.298Z,100218.03
2022-10-14T06:10:55.435Z,100222.63
2022-10-14T06:13:23.548Z,100221.81
2022-10-14T06:15:51.460Z,100227.81
2022-10-14T06:18:20.747Z,100237.56
2022-10-14T06:20:53.167Z,100236.72
2022-10-14T06:23:21.834Z,100239.22
2022-10-14T06:25:49.764Z,100238.38
2022-10-14T06:28:17.781Z,100244.63
2022-10-14T06:30:50.808Z,100246.31
2022-10-14T06:33:20.171Z,100240.06
2022-10-14T06:35:48.151Z,100240.91
2022-10-14T06:38:16.183Z,100240.91
2022-10-14T06:40:44.392Z,100246.47
2022-10-14T06:43:12.376Z,100242.94
2022-10-14T06:45:58.298Z,100237.56
2022-10-14T06:48:27.630Z,100243.78
2022-10-14T06:50:55.622Z,100235.50
2022-10-14T06:53:23.621Z,100231.13
2022-10-14T06:55:51.519Z,100230.09
2022-10-14T06:58:19.499Z,100226.34
2022-10-14T07:00:48.380Z,100232.56
2022-10-14T07:03:16.476Z,100226.34
2022-10-14T07:05:45.765Z,100226.97
2022-10-14T07:08:15.519Z,100230.47
2022-10-14T07:10:43.901Z,100232.13
2022-10-14T07:13:11.839Z,100229.44
2022-10-14T07:15:40.016Z,100235.69
2022-10-14T07:18:08.227Z,100235.44
2022-10-14T07:20:36.118Z,100242.28
2022-10-14T07:23:05.533Z,100241.25
2022-10-14T07:25:34.003Z,100241.25
2022-10-14T07:28:01.959Z,100244.53
2022-10-14T07:30:29.958Z,100247.22
2022-10-14T07:32:57.872Z,100245.16
2022-10-14T07:35:26.976Z,100248.66
2022-10-14T07:37:55.083Z,100256.78
2022-10-14T07:40:24.434Z,100257.84
2022-10-14T07:42:52.479Z,100258.66
2022-10-14T07:45:21.331Z,100252.19
2022-10-14T07:47:50.101Z,100253.25
2022-10-14T07:50:18.100Z,100248.47
2022-10-14T07:52:46.047Z,100252.19
2022-10-14T07:55:13.997Z,100253.25
2022-10-14T07:57:43.927Z,100256.78
2022-10-14T08:00:12.463Z,100250.34
2022-10-14T08:02:40.450Z,100254.47
2022-10-14T08:05:26.082Z,100251.78
2022-10-14T08:07:56.527Z,100249.09
2022-10-14T08:10:24.438Z,100256.13
2022-10-14T08:12:53.900Z,100246.16
2022-10-14T08:15:21.838Z,100253.44
2022-10-14T08:17:49.783Z,100253.44
2022-10-14T08:20:17.775Z,100261.53
2022-10-14T08:22:45.723Z,100261.53
2022-10-14T08:25:13.654Z,100256.94
2022-10-14T08:27:41.550Z,100249.66
2022-10-14T08:30:12.157Z,100264.59
2022-10-14T08:32:40.161Z,100267.09
2022-10-14T08:35:09.549Z,100260.88
2022-10-14T08:37:37.820Z,100256.28
2022-10-14T08:40:06.669Z,100266.03
2022-10-14T08:42:41.292Z,100263.97
2022-10-14T08:45:11.525Z,100269.34
2022-10-14T08:47:41.425Z,100266.44
2022-10-14T08:50:18.532Z,100268.09
2022-10-14T08:52:49.473Z,100267.88
2022-10-14T08:55:23.620Z,100270.16
2022-10-14T08:57:53.261Z,100258.06
2022-10-14T09:00:22.782Z,100265.94
2022-10-14T09:02:51.958Z,100267.63
2022-10-14T09:05:22.170Z,100260.53
2022-10-14T09:10:27.282Z,100267.63
2022-10-14T09:12:55.345Z,100264.66
2022-10-14T09:15:27.955Z,100266.34
2022-10-14T09:18:06.130Z,100271.75
2022-10-14T09:20:34.124Z,100269.03
2022-10-14T09:23:10.736Z,100271.75
2022-10-14T09:25:38.684Z,100267.16
2022-10-14T09:28:07.036Z,100268.81
2022-10-14T09:30:37.780Z,100263.66
2022-10-14T09:33:05.808Z,100263.41
2022-10-14T09:35:35.803Z,100264.25
2022-10-14T09:38:03.846Z,100270.47
2022-10-14T09:40:33.587Z,100262.38
2022-10-14T09:43:04.237Z,100265.06
2022-10-14T09:45:37.153Z,100269.88
2022-10-14T09:48:08.116Z,100275.72
2022-10-14T09:50:37.411Z,100270.94
2022-10-14T09:53:10.741Z,100271.75
2022-10-14T09:55:39.741Z,100266.09
2022-10-14T09:58:09.551Z,100268.81
2022-10-14T10:00:38.769Z,100263.41
2022-10-14T10:03:11.502Z,100265.66
2022-10-14T10:05:41.608Z,100260.06
2022-10-14T10:08:17.180Z,100257.72
2022-10-14T10:11:03.622Z,100268.13
2022-10-14T10:13:45.008Z,100262.72
2022-10-14T10:16:21.977Z,100256.25
2022-10-14T10:18:52.240Z,100269.53
2022-10-14T10:21:21.260Z,100262.72
2022-10-14T10:23:53.963Z,100271.63
2022-10-14T10:26:26.670Z,100258.34
2022-10-14T10:28:57.502Z,100257.50
2022-10-14T10:31:58.334Z,100252.13
2022-10-14T10:34:59.792Z,100249.63
2022-10-14T10:37:30.053Z,100253.38
2022-10-14T10:40:22.521Z,100243.19
2022-10-14T10:42:56.731Z,100251.75
2022-10-14T10:45:35.561Z,100249.84
2022-10-14T10:48:08.176Z,100250.06
2022-10-14T10:50:42.024Z,100240.94
2022-10-14T10:53:23.412Z,100237.16
2022-10-14T10:55:56.665Z,100233.41
2022-10-14T10:58:35.463Z,100229.69
2022-10-14T11:01:07.410Z,100228.63
2022-10-14T11:03:43.891Z,100220.50
2022-10-14T11:06:12.444Z,100221.34
2022-10-14T11:09:05.692Z,100218.41
2022-10-14T11:11:52.710Z,100231.72
2022-10-14T11:14:48.784Z,100219.03
2022-10-14T11:17:21.627Z,100212.56
2022-10-14T11:19:53.269Z,100204.47
2022-10-14T11:22:29.897Z,100215.88
2022-10-14T11:25:03.889Z,100210.84
2022-10-14T11:27:34.965Z,100202.53
2022-10-14T11:30:18.870Z,100203.13
2022-10-14T11:33:00.562Z,100202.06
2022-10-14T11:38:31.360Z,100199.75
2022-10-14T11:41:02.945Z,100200.38
2022-10-14T11:43:34.506Z,100188.94
2022-10-14T11:46:02.930Z,100191.47
2022-10-14T11:48:34.950Z,100193.34
2022-10-14T11:51:08.843Z,100185.41
2022-10-14T11:53:48.618Z,100193.34
2022-10-14T11:56:25.265Z,100181.06
2022-10-14T11:58:53.291Z,100180.47
2022-10-14T12:01:22.558Z,100182.09
2022-10-14T12:03:54.715Z,100167.56
2022-10-14T12:06:23.764Z,100168.59
2022-10-14T12:09:01.426Z,100162.59
2022-10-14T12:11:35.145Z,100160.94
2022-10-14T12:14:07.276Z,100163.63
2022-10-14T12:16:35.231Z,100159.28
2022-10-14T12:19:03.168Z,100160.09
2022-10-14T12:21:33.745Z,100157.63
2022-10-14T12:24:04.440Z,100156.81
2022-10-14T12:26:46.109Z,100154.91
2022-10-14T12:29:14.503Z,100157.63
2022-10-14T12:31:42.560Z,100155.53
2022-10-14T12:34:18.871Z,100148.25
2022-10-14T12:36:47.254Z,100147.41
2022-10-14T12:39:34.452Z,100140.13
2022-10-14T12:42:05.347Z,100148.03
2022-10-14T12:44:42.355Z,100145.53
2022-10-14T12:47:17.466Z,100140.97
2022-10-14T12:49:48.174Z,100137.22
2022-10-14T12:52:19.284Z,100134.50
2022-10-14T12:54:48.167Z,100140.75
2022-10-14T12:57:23.379Z,100144.25
2022-10-14T12:59:51.651Z,100132.41
2022-10-14T13:02:26.775Z,100137.00
2022-10-14T13:04:55.575Z,100135.13
2022-10-14T13:07:41.084Z,100138.44
2022-10-14T13:10:48.747Z,100140.91
2022-10-14T13:13:55.235Z,100139.84
2022-10-14T13:17:06.008Z,100136.94
2022-10-14T13:19:46.649Z,100142.34
2022-10-14T13:22:37.162Z,100145.06
2022-10-14T13:25:12.107Z,100146.69
2022-10-14T13:27:44.688Z,100145.06
2022-10-14T13:30:17.426Z,100144.84
2022-10-14T13:32:46.731Z,100142.13
2022-10-14T13:35:18.849Z,100137.56
2022-10-14T13:37:47.460Z,100132.16
2022-10-14T13:40:21.943Z,100129.44
2022-10-14T13:42:53.182Z,100120.28
2022-10-14T13:45:25.239Z,100123.78
2022-10-14T13:47:53.724Z,100124.63
2022-10-14T13:50:23.548Z,100121.94
2022-10-14T13:52:55.421Z,100127.34
2022-10-14T13:55:24.969Z,100133.78
2022-10-14T13:58:13.015Z,100131.69
2022-10-14T14:00:44.265Z,100131.91
2022-10-14T14:03:18.008Z,100134.59
2022-10-14T14:05:45.946Z,100130.03
2022-10-14T14:11:22.054Z,100127.56
2022-10-14T14:13:59.991Z,100124.03
2022-10-14T14:16:33.026Z,100125.06
2022-10-14T14:19:08.877Z,100121.34
2022-10-14T14:21:38.078Z,100128.38
2022-10-14T14:24:12.226Z,100130.03
2022-10-14T14:26:40.815Z,100133.78
2022-10-14T14:29:15.001Z,100133.78
2022-10-14T14:34:32.830Z,100134.59
2022-10-14T14:37:11.041Z,100130.88
2022-10-14T14:39:57.157Z,100138.16
2022-10-14T14:42:25.541Z,100128.38
2022-10-14T14:44:53.707Z,100124.84
2022-10-14T14:47:23.910Z,100126.75
2022-10-14T14:50:06.180Z,100129.44
2022-10-14T14:52:41.444Z,100130.25
2022-10-14T14:55:37.764Z,100129.19
2022-10-14T14:58:07.038Z,100134.59
2022-10-14T15:00:35.050Z,100131.09
2022-10-14T15:03:05.143Z,100124.84
2022-10-14T15:05:33.058Z,100133.78
2022-10-14T15:08:01.635Z,100120.88
2022-10-14T15:10:31.557Z,100124.63
2022-10-14T15:13:02.609Z,100117.97
2022-10-14T15:15:32.354Z,100124.19
2022-10-14T15:18:14.444Z,100124.41
2022-10-14T15:20:43.084Z,100122.97
2022-10-14T15:23:43.658Z,100118.03
2022-10-14T15:26:23.141Z,100128.47
2022-10-14T15:29:05.571Z,100124.53
2022-10-14T15:31:33.561Z,100116.06
2022-10-14T15:34:03.655Z,100120.63
2022-10-14T15:36:32.397Z,100125.66
2022-10-14T15:39:02.155Z,100129.41
2022-10-14T15:41:30.177Z,100119.06
2022-10-14T15:43:59.189Z,100127.38
2022-10-14T15:46:44.300Z,100131.34
2022-10-14T15:49:16.913Z,100120.78
2022-10-14T15:51:44.909Z,100135.56
2022-10-14T15:54:15.407Z,100130.38
2022-10-14T15:56:43.399Z,100133.28
2022-10-14T15:59:12.048Z,100143.50
2022-10-14T16:01:41.318Z,100139.16
2022-10-14T16:04:17.965Z,100142.91
2022-10-14T16:06:45.948Z,100142.91
2022-10-14T16:09:15.284Z,100142.91
2022-10-14T16:11:43.275Z,100151.22
2022-10-14T16:14:13.670Z,100149.59
2022-10-14T16:16:43.354Z,100146.06
2022-10-14T16:19:12.041Z,100147.09
2022-10-14T16:21:41.462Z,100145.44
2022-10-14T16:24:12.562Z,100151.91
2022-10-14T16:26:42.225Z,100151.91
2022-10-14T16:29:10.417Z,100152.94
2022-10-14T16:31:39.219Z,100155.03
2022-10-14T16:34:07.175Z,100153.38
2022-10-14T16:36:35.772Z,100157.16
2022-10-14T16:39:05.235Z,100161.69
2022-10-14T16:41:33.909Z,100167.34
2022-10-14T16:44:01.868Z,100168.41
2022-10-14T16:46:44.515Z,100178.34
2022-10-14T16:49:12.517Z,100175.91
2022-10-14T16:51:41.534Z,100169.66
2022-10-14T16:54:13.120Z,100169.88
2022-10-14T16:56:58.818Z,100177.38
2022-10-14T16:59:28.375Z,100180.06
2022-10-14T17:01:57.129Z,100189.22
2022-10-14T17:04:25.407Z,100191.94
2022-10-14T17:06:54.137Z,100185.91
2022-10-14T17:11:57.161Z,100186.13
2022-10-14T17:14:25.147Z,100183.66
2022-10-14T17:16:54.576Z,100188.25
2022-10-14T17:19:23.968Z,100186.38
2022-10-14T17:21:53.506Z,100197.38
2022-10-14T17:24:22.149Z,100192.22
2022-10-14T17:26:53.505Z,100197.59
2022-10-14T17:29:21.832Z,100198.88
2022-10-14T17:31:50.532Z,100197.00
2022-10-14T17:34:18.476Z,100204.28
2022-10-14T17:36:47.535Z,100196.38
2022-10-14T17:39:22.887Z,100201.78
2022-10-14T17:41:59.451Z,100205.53
2022-10-14T17:44:28.756Z,100211.97
2022-10-14T17:46:57.649Z,100211.97
2022-10-14T17:49:25.640Z,100211.16
2022-10-14T17:51:54.300Z,100217.59
2022-10-14T17:54:23.079Z,100212.19
2022-10-14T17:56:52.219Z,100213.47
2022-10-14T17:59:21.612Z,100223.22
2022-10-14T18:02:02.054Z,100217.19
2022-10-14T18:04:30.869Z,100219.88
2022-10-14T18:07:00.598Z,100234.44
2022-10-14T18:09:28.623Z,100230.69
2022-10-14T18:12:14.245Z,100231.75
2022-10-14T18:14:43.684Z,100226.34
2022-10-14T18:17:13.087Z,100236.09
2022-10-14T18:19:41.935Z,100238.19
2022-10-14T18:22:11.681Z,100235.50
2022-10-14T18:24:39.681Z,100241.72
2022-10-14T18:27:08.403Z,100241.72
2022-10-14T18:29:36.319Z,100240.91
2022-10-14T18:32:07.087Z,100246.31
2022-10-14T18:34:35.016Z,100244.63
2022-10-14T18:37:03.723Z,100250.03
2022-10-14T18:39:31.730Z,100248.34
2022-10-14T18:42:00.486Z,100252.09
2022-10-14T18:44:28.396Z,100245.84
2022-10-14T18:46:59.535Z,100244.00
2022-10-14T18:49:29.015Z,100252.09
2022-10-14T18:51:57.726Z,100257.50
2022-10-14T18:54:26.418Z,100255.84
2022-10-14T18:56:59.058Z,100255.00
2022-10-14T18:59:27.243Z,100259.59
2022-10-14T19:01:56.163Z,100262.28
2022-10-14T19:04:26.843Z,100261.66
2022-10-14T19:06:56.956Z,100257.31
2022-10-14T19:09:29.577Z,100260.03
2022-10-14T19:11:59.717Z,100265.44
2022-10-14T19:14:28.761Z,100270.81
2022-10-14T19:16:57.661Z,100262.09
2022-10-14T19:19:28.628Z,100264.81
2022-10-14T19:22:00.416Z,100263.13
2022-10-14T19:24:28.632Z,100270.41
2022-10-14T19:26:59.152Z,100270.41
2022-10-14T19:29:27.105Z,100265.00
2022-10-14T19:31:55.406Z,100270.41
2022-10-14T19:34:27.105Z,100265.84
2022-10-14T19:36:55.418Z,100271.47
2022-10-14T19:39:25.641Z,100280.38
2022-10-14T19:41:53.623Z,100280.38
2022-10-14T19:44:23.680Z,100276.88
2022-10-14T19:46:52.001Z,100278.75
2022-10-14T19:49:22.099Z,100276.03
2022-10-14T19:51:50.096Z,100273.34
2022-10-14T19:54:19.652Z,100278.75
2022-10-14T19:56:49.721Z,100280.59
2022-10-14T19:59:18.366Z,100273.53
2022-10-14T20:01:46.454Z,100271.66
2022-10-14T20:04:15.131Z,100272.72
2022-10-14T20:06:43.855Z,100273.53
2022-10-14T20:09:12.784Z,100279.16
2022-10-14T20:11:40.896Z,100281.84
2022-10-14T20:14:11.648Z,100280.19
2022-10-14T20:16:39.605Z,100278.56
2022-10-14T20:19:08.351Z,100282.91
2022-10-14T20:21:36.311Z,100289.34
2022-10-14T20:24:05.121Z,100281.25
2022-10-14T20:26:33.066Z,100277.13
2022-10-14T20:29:01.829Z,100275.25
2022-10-14T20:31:31.238Z,100284.41
2022-10-14T20:33:59.918Z,100277.94
2022-10-14T20:36:27.864Z,100289.56
2022-10-14T20:38:56.562Z,100290.63
2022-10-14T20:41:25.410Z,100276.31
2022-10-14T20:43:54.529Z,100277.94
2022-10-14T20:46:23.314Z,100279.00
2022-10-14T20:48:56.821Z,100273.59
2022-10-14T20:51:24.741Z,100278.16
2022-10-14T20:54:01.898Z,100274.63
2022-10-14T20:56:33.156Z,100274.63
2022-10-14T20:59:02.949Z,100275.69
2022-10-14T21:01:31.246Z,100266.75
2022-10-14T21:04:02.664Z,100275.69
2022-10-14T21:06:30.627Z,100269.66
2022-10-14T21:08:59.711Z,100266.75
2022-10-14T21:11:28.019Z,100265.09
2022-10-14T21:13:58.023Z,100264.25
2022-10-14T21:16:27.503Z,100267.78
2022-10-14T21:18:58.036Z,100264.47
2022-10-14T21:21:29.167Z,100265.31
2022-10-14T21:23:57.966Z,100264.69
2022-10-14T21:26:26.335Z,100259.31
2022-10-14T21:28:54.993Z,100256.59
2022-10-14T21:31:23.058Z,100254.94
2022-10-14T21:33:59.869Z,100256.00
2022-10-14T21:36:32.040Z,100256.81
2022-10-14T21:39:01.991Z,100261.38
2022-10-14T21:41:29.906Z,100261.38
2022-10-14T21:43:59.282Z,100256.00
2022-10-14T21:46:28.306Z,100257.63
2022-10-14T21:48:57.027Z,100257.88
2022-10-14T21:51:26.139Z,100256.00
2022-10-14T21:53:55.986Z,100254.94
2022-10-14T21:56:24.507Z,100250.59
2022-10-14T21:58:52.533Z,100251.41
2022-10-14T22:01:22.503Z,100251.41
2022-10-14T22:03:53.939Z,100249.78
2022-10-14T22:06:22.547Z,100244.56
2022-10-14T22:08:51.739Z,100251.84
2022-10-14T22:11:22.759Z,100251.03
2022-10-14T22:13:50.831Z,100242.31
2022-10-14T22:16:19.296Z,100249.38
2022-10-14T22:18:47.778Z,100253.09
2022-10-14T22:21:16.443Z,100259.31
2022-10-14T22:23:44.575Z,100258.50
2022-10-14T22:26:14.119Z,100252.28
2022-10-14T22:28:43.605Z,100262.25
2022-10-14T22:31:12.558Z,100249.78
2022-10-14T22:33:41.023Z,100258.72
2022-10-14T22:36:09.817Z,100249.78
2022-10-14T22:38:37.825Z,100248.16
2022-10-14T22:41:07.472Z,100248.97
2022-10-14T22:43:36.966Z,100262.69
2022-10-14T22:46:07.421Z,100262.69
2022-10-14T22:48:35.594Z,100260.00
2022-10-14T22:51:04.242Z,100251.91
2022-10-14T22:53:32.241Z,100258.94
2022-10-14T22:56:01.091Z,100258.94
2022-10-14T22:58:29.077Z,100257.28
2022-10-14T23:00:56.985Z,100255.41
2022-10-14T23:03:27.283Z,100257.28
2022-10-14T23:05:55.237Z,100262.69
2022-10-14T23:08:23.139Z,100255.63
2022-10-14T23:10:52.003Z,100256.69
2022-10-14T23:13:19.900Z,100254.81
2022-10-14T23:15:55.915Z,100248.59
2022-10-14T23:18:24.007Z,100250.66
2022-10-14T23:20:53.413Z,100252.31
2022-10-14T23:23:21.413Z,100249.84
2022-10-14T23:25:49.473Z,100249.84
2022-10-14T23:28:17.499Z,100243.63
2022-10-14T23:30:45.498Z,100249.84
2022-10-14T23:33:13.422Z,100249.00
2022-10-14T23:35:41.455Z,100251.91
2022-10-14T23:38:12.493Z,100243.63
2022-10-14T23:40:40.431Z,100243.00
2022-10-14T23:43:08.404Z,100248.41
2022-10-14T23:45:36.314Z,100245.69
2022-10-14T23:48:04.278Z,100241.34
2022-10-14T23:50:32.271Z,100251.09
2022-10-14T23:53:00.573Z,100244.88
2022-10-14T23:55:30.526Z,100248.41
2022-10-14T23:57:58.472Z,100248.41
